Time;durP1;ratioP1;P1;durP2;ratioP2;P2;SDS_P1;SDS_P2;PMS_P1;PMS_P2;Temp;Humidity;BMP_temperature;BMP_pressure;BME280_temperature;BME280_humidity;BME280_pressure;Samples;Min_cycle;Max_cycle;Signal;HPM_P1;HPM_P2
2023/12/11 00:00:29;;;;;;;52.40;9.75;;;;;;;-144.73;100.00;54723.81;4983780;28;20109;-76
2023/12/11 00:03:01;;;;;;;42.90;8.13;;;;;;;-144.73;100.00;54744.31;4978798;28;20173;-75
2023/12/11 00:05:26;;;;;;;46.78;8.82;;;;;;;-144.73;100.00;54742.28;4987414;28;20034;-76
2023/12/11 00:07:52;;;;;;;49.30;8.85;;;;;;;-144.73;100.00;54756.66;4980579;28;20109;-77
2023/12/11 00:10:17;;;;;;;34.15;7.13;;;;;;;-144.73;100.00;54744.31;4983850;28;20053;-77
2023/12/11 00:12:43;;;;;;;37.47;7.75;;;;;;;-144.73;100.00;54723.81;4979339;28;20055;-78
2023/12/11 00:15:10;;;;;;;41.15;7.38;;;;;;;-144.73;100.00;54703.28;4982389;28;20030;-77
2023/12/11 00:17:36;;;;;;;38.97;7.80;;;;;;;-144.73;100.00;54756.66;4986849;28;20038;-77
2023/12/11 00:20:02;;;;;;;41.10;6.65;;;;;;;-144.73;100.00;54690.97;4983503;28;20022;-77
2023/12/11 00:22:28;;;;;;;30.42;6.22;;;;;;;-144.73;100.00;54736.13;4980382;28;20046;-79
2023/12/11 00:24:53;;;;;;;46.33;7.35;;;;;;;-144.73;100.00;54723.81;4991414;28;20050;-78
2023/12/11 00:27:22;;;;;;;25.88;6.32;;;;;;;-144.73;100.00;54748.44;4986158;28;20039;-77
2023/12/11 00:29:47;;;;;;;36.22;6.85;;;;;;;-144.73;100.00;54752.53;4978843;28;20061;-76
2023/12/11 00:32:12;;;;;;;30.20;6.40;;;;;;;-144.73;100.00;54773.06;4978035;28;20059;-76
2023/12/11 00:34:38;;;;;;;32.70;5.50;;;;;;;-144.73;100.00;54746.38;4980805;28;20026;-76
2023/12/11 00:37:03;;;;;;;24.70;4.90;;;;;;;-144.73;100.00;54748.44;4980495;28;20035;-75
2023/12/11 00:39:29;;;;;;;34.60;5.55;;;;;;;-144.73;100.00;54715.59;4977517;28;20032;-75
2023/12/11 00:41:54;;;;;;;28.55;5.63;;;;;;;-144.73;100.00;54746.38;4980919;28;20039;-75
2023/12/11 00:44:19;;;;;;;30.88;5.55;;;;;;;-144.73;100.00;54744.31;4985565;28;20085;-75
2023/12/11 00:46:45;;;;;;;28.83;4.90;;;;;;;-144.73;100.00;54760.75;4979039;28;20490;-75
2023/12/11 00:49:13;;;;;;;20.98;5.13;;;;;;;-144.73;100.00;54756.66;4975194;28;20023;-75
2023/12/11 00:51:39;;;;;;;30.42;4.50;;;;;;;-144.73;100.00;54764.84;4982128;28;20054;-75
2023/12/11 00:54:04;;;;;;;29.92;5.10;;;;;;;-144.73;100.00;54719.69;4980743;28;20022;-75
2023/12/11 00:56:30;;;;;;;24.42;4.80;;;;;;;-144.73;100.00;54715.59;4979824;28;20485;-74
2023/12/11 00:58:55;;;;;;;27.55;5.50;;;;;;;-144.73;100.00;54723.81;4978172;28;20023;-74
2023/12/11 01:01:23;;;;;;;24.33;4.53;;;;;;;-144.73;100.00;54748.44;4980102;28;20026;-75
2023/12/11 01:03:49;;;;;;;33.92;5.60;;;;;;;-144.73;100.00;54764.84;4978513;28;20551;-75
2023/12/11 01:06:14;;;;;;;27.33;5.20;;;;;;;-144.73;100.00;54756.66;4979973;28;20023;-75
2023/12/11 01:08:43;;;;;;;29.35;5.93;;;;;;;-144.73;100.00;54756.66;4982049;28;20209;-74
2023/12/11 01:11:11;;;;;;;29.10;5.80;;;;;;;-144.73;100.00;54740.22;4982823;28;20018;-74
2023/12/11 01:13:37;;;;;;;29.38;5.15;;;;;;;-144.73;100.00;54736.13;4983236;28;20039;-74
2023/12/11 01:16:03;;;;;;;24.88;5.30;;;;;;;-144.73;100.00;54760.75;4983413;28;20033;-75
2023/12/11 01:18:28;;;;;;;24.10;5.30;;;;;;;-144.73;100.00;54756.66;4982673;28;20031;-74
2023/12/11 01:20:54;;;;;;;26.85;4.68;;;;;;;-144.73;100.00;54723.81;4978591;28;20015;-75
2023/12/11 01:23:19;;;;;;;24.75;4.93;;;;;;;-144.73;100.00;54779.22;4977659;28;20040;-74
2023/12/11 01:25:45;;;;;;;32.63;5.65;;;;;;;-144.73;100.00;54732.00;4983338;28;20027;-74
2023/12/11 01:28:10;;;;;;;25.33;5.30;;;;;;;-144.73;100.00;54748.44;4979204;28;20121;-75
2023/12/11 01:30:36;;;;;;;25.77;5.18;;;;;;;-144.73;100.00;54756.66;4980496;28;20018;-75
2023/12/11 01:33:04;;;;;;;25.15;5.30;;;;;;;-144.73;100.00;54727.91;4984252;28;20146;-74
2023/12/11 01:35:33;;;;;;;33.20;6.00;;;;;;;-144.73;100.00;54715.59;4973354;28;20040;-75
2023/12/11 01:37:59;;;;;;;24.98;5.53;;;;;;;-144.73;100.00;54744.31;4976882;28;20037;-75
2023/12/11 01:40:24;;;;;;;30.17;6.20;;;;;;;-144.73;100.00;54715.59;4974420;28;20022;-75
2023/12/11 01:42:52;;;;;;;22.50;5.15;;;;;;;-144.73;100.00;54705.31;4978666;28;20065;-75
2023/12/11 01:45:18;;;;;;;26.75;6.18;;;;;;;-144.73;100.00;54773.06;4979952;28;20473;-75
2023/12/11 01:47:43;;;;;;;27.55;6.53;;;;;;;-144.73;100.00;54744.31;4975463;28;20042;-75
2023/12/11 01:50:09;;;;;;;29.77;5.60;;;;;;;-144.73;100.00;54738.16;4981743;28;20029;-75
2023/12/11 01:52:36;;;;;;;27.85;5.88;;;;;;;-144.73;100.00;54732.00;4979735;28;20038;-75
2023/12/11 01:55:04;;;;;;;32.30;7.07;;;;;;;-144.73;100.00;54707.38;4979553;28;20027;-75
2023/12/11 01:57:30;;;;;;;32.67;6.53;;;;;;;-144.73;100.00;54758.69;4983436;28;20571;-75
2023/12/11 01:59:56;;;;;;;31.55;7.13;;;;;;;-144.73;100.00;54748.44;4979190;28;20041;-75
2023/12/11 02:02:22;;;;;;;33.38;7.63;;;;;;;-144.73;100.00;54727.91;4981557;28;20086;-75
2023/12/11 02:04:49;;;;;;;20.48;6.75;;;;;;;-144.73;100.00;54738.16;4975673;28;20046;-75
2023/12/11 02:07:16;;;;;;;27.55;6.85;;;;;;;-144.73;100.00;54768.97;4978408;28;20113;-75
2023/12/11 02:09:41;;;;;;;30.35;7.35;;;;;;;-144.73;100.00;54744.31;4975982;28;20030;-75
2023/12/11 02:12:07;;;;;;;28.05;8.10;;;;;;;-144.73;100.00;54760.75;4985598;28;20035;-75
2023/12/11 02:14:32;;;;;;;44.88;9.25;;;;;;;-144.73;100.00;54748.44;4977205;28;20481;-75
2023/12/11 02:16:58;;;;;;;36.13;9.50;;;;;;;-144.73;100.00;54768.97;4975465;28;20037;-75
2023/12/11 02:19:23;;;;;;;32.35;9.45;;;;;;;-144.73;100.00;54736.13;4980783;28;20028;-75
2023/12/11 02:21:49;;;;;;;35.33;9.93;;;;;;;-144.73;100.00;54764.84;4978836;28;20036;-75
2023/12/11 02:24:26;;;;;;;38.60;10.48;;;;;;;-144.73;100.00;54750.50;4982905;28;20531;-75
2023/12/11 02:26:51;;;;;;;42.92;12.95;;;;;;;-144.73;100.00;54719.69;4979617;28;20089;-75
2023/12/11 02:29:17;;;;;;;32.00;11.85;;;;;;;-144.73;100.00;54756.66;4982649;28;20421;-75
2023/12/11 02:31:42;;;;;;;35.85;11.93;;;;;;;-144.73;100.00;54773.06;4982900;28;20046;-75
2023/12/11 02:34:08;;;;;;;52.58;14.88;;;;;;;-144.73;100.00;54768.97;4989806;28;20033;-75
2023/12/11 02:36:33;;;;;;;31.13;13.60;;;;;;;-144.73;100.00;54740.22;4988867;28;20041;-75
2023/12/11 02:38:59;;;;;;;39.88;13.98;;;;;;;-144.73;100.00;54744.31;4984505;28;20035;-76
2023/12/11 02:41:25;;;;;;;33.97;13.85;;;;;;;-144.73;100.00;54727.91;4984521;28;20027;-75
2023/12/11 02:43:50;;;;;;;33.33;14.48;;;;;;;-144.73;100.00;54736.13;4978510;28;20038;-76
2023/12/11 02:46:15;;;;;;;26.83;13.63;;;;;;;-144.73;100.00;54779.22;4978302;28;20027;-78
2023/12/11 02:48:41;;;;;;;36.97;15.50;;;;;;;-144.73;100.00;54736.13;4982808;28;20038;-76
2023/12/11 02:51:06;;;;;;;33.38;15.27;;;;;;;-144.73;100.00;54748.44;4985288;28;20026;-75
2023/12/11 02:53:32;;;;;;;36.67;15.82;;;;;;;-144.73;100.00;54715.59;4989931;28;20063;-75
2023/12/11 02:55:57;;;;;;;32.33;14.88;;;;;;;-144.73;100.00;54752.53;4983319;28;20029;-76
2023/12/11 02:58:22;;;;;;;31.88;13.63;;;;;;;-144.73;100.00;54740.22;4978888;28;20039;-76
2023/12/11 03:00:48;;;;;;;32.72;15.75;;;;;;;-144.73;100.00;54754.59;4987595;28;20026;-76
2023/12/11 03:03:13;;;;;;;39.30;14.05;;;;;;;-144.73;100.00;54732.00;4975758;28;20043;-75
2023/12/11 03:05:39;;;;;;;43.38;14.43;;;;;;;-144.73;100.00;54760.75;4979433;28;20486;-76
2023/12/11 03:08:05;;;;;;;37.45;14.15;;;;;;;-144.73;100.00;54746.38;4987267;28;20045;-76
2023/12/11 03:10:31;;;;;;;28.08;13.45;;;;;;;-144.73;100.00;54744.31;4984295;28;20034;-76
2023/12/11 03:12:57;;;;;;;48.80;14.10;;;;;;;-144.73;100.00;54746.38;4983330;28;20037;-76
2023/12/11 03:15:22;;;;;;;38.65;13.00;;;;;;;-144.73;100.00;54764.84;4980923;28;20027;-76
2023/12/11 03:17:51;;;;;;;39.20;13.48;;;;;;;-144.73;100.00;54773.06;4975932;28;20034;-76
2023/12/11 03:20:16;;;;;;;36.85;14.15;;;;;;;-144.73;100.00;54744.31;4978141;28;20402;-77
2023/12/11 03:22:42;;;;;;;35.10;13.48;;;;;;;-144.73;100.00;54719.69;4982610;28;20047;-77
2023/12/11 03:25:10;;;;;;;49.15;12.75;;;;;;;-144.73;100.00;54760.75;4987948;28;20023;-76
2023/12/11 03:27:39;;;;;;;39.25;12.85;;;;;;;-144.73;100.00;54715.59;4970284;28;20042;-77
2023/12/11 03:30:08;;;;;;;44.08;12.00;;;;;;;-144.73;100.00;54760.75;4979327;28;20054;-77
2023/12/11 03:32:34;;;;;;;38.95;11.35;;;;;;;-144.73;100.00;54756.66;4983031;28;20042;-77
2023/12/11 03:34:59;;;;;;;41.53;12.23;;;;;;;-144.73;100.00;54736.13;4983944;28;20034;-77
2023/12/11 03:37:27;;;;;;;53.60;11.43;;;;;;;-144.73;100.00;54748.44;4988768;28;20069;-78
2023/12/11 03:39:53;;;;;;;43.80;11.05;;;;;;;-144.73;100.00;54744.31;4980277;28;20034;-77
2023/12/11 03:42:18;;;;;;;43.10;9.52;;;;;;;-144.73;100.00;54814.13;4981449;28;20050;-77
2023/12/11 03:44:47;;;;;;;40.08;9.43;;;;;;;-144.73;100.00;54785.38;4986888;28;20035;-78
2023/12/11 03:47:12;;;;;;;37.33;9.75;;;;;;;-144.73;100.00;54768.97;4981903;28;20043;-77
2023/12/11 03:49:44;;;;;;;42.15;9.82;;;;;;;-144.73;100.00;54740.22;4980722;28;20030;-77
2023/12/11 03:52:12;;;;;;;37.70;9.65;;;;;;;-144.73;100.00;54777.16;4986176;28;20048;-77
2023/12/11 03:54:38;;;;;;;40.72;9.70;;;;;;;-144.73;100.00;54744.31;4981182;28;20034;-76
2023/12/11 03:57:03;;;;;;;73.30;12.05;;;;;;;-144.73;100.00;54768.97;4988132;28;20133;-77
2023/12/11 03:59:29;;;;;;;57.40;10.75;;;;;;;-144.73;100.00;54768.97;4977997;28;20033;-76
2023/12/11 04:01:54;;;;;;;48.88;7.45;;;;;;;-144.73;100.00;54719.69;4983297;28;20202;-75
2023/12/11 04:04:19;;;;;;;46.55;8.77;;;;;;;-144.73;100.00;54787.44;4983250;28;20026;-75
2023/12/11 04:06:47;;;;;;;49.08;8.55;;;;;;;-144.73;100.00;54711.47;4986114;28;20030;-75
2023/12/11 04:09:13;;;;;;;54.60;8.55;;;;;;;-144.73;100.00;54752.53;4984297;28;20038;-75
2023/12/11 04:11:38;;;;;;;56.85;9.30;;;;;;;-144.73;100.00;54771.00;4986360;28;20096;-74
2023/12/11 04:14:03;;;;;;;57.47;9.55;;;;;;;-144.73;100.00;54758.69;4985283;28;20085;-73
2023/12/11 04:16:29;;;;;;;55.15;6.72;;;;;;;-144.73;100.00;54744.31;4979919;28;20034;-73
2023/12/11 04:18:54;;;;;;;58.17;7.45;;;;;;;-144.73;100.00;54748.44;4974026;28;20043;-73
2023/12/11 04:21:20;;;;;;;51.75;6.53;;;;;;;-144.73;100.00;54773.06;4988108;28;20101;-72
2023/12/11 04:23:45;;;;;;;60.53;7.05;;;;;;;-144.73;100.00;54807.97;4975462;28;20038;-72
2023/12/11 04:26:12;;;;;;;53.33;7.05;;;;;;;-144.73;100.00;54738.16;4979281;28;20041;-73
2023/12/11 04:28:37;;;;;;;64.50;8.32;;;;;;;-144.73;100.00;54754.59;4971491;28;20049;-73
2023/12/11 04:31:03;;;;;;;60.05;7.15;;;;;;;-144.73;100.00;54727.91;4982254;28;20084;-72
2023/12/11 04:33:28;;;;;;;72.82;8.40;;;;;;;-144.73;100.00;54756.66;4971528;28;20166;-72
2023/12/11 04:35:54;;;;;;;54.03;7.70;;;;;;;-144.73;100.00;54742.28;4973183;28;20030;-73
2023/12/11 04:38:22;;;;;;;58.92;8.10;;;;;;;-144.73;100.00;54736.13;4970758;28;20046;-76
2023/12/11 04:40:47;;;;;;;61.72;8.25;;;;;;;-144.73;100.00;54760.75;4976032;28;20038;-78
2023/12/11 04:43:13;;;;;;;67.55;8.35;;;;;;;-144.73;100.00;54727.91;4982158;28;20050;-77
2023/12/11 04:45:38;;;;;;;65.78;8.77;;;;;;;-144.73;100.00;54826.44;4982404;28;20034;-78
2023/12/11 04:48:04;;;;;;;57.20;8.50;;;;;;;-144.73;100.00;54752.53;4989201;28;20064;-80
2023/12/11 04:50:29;;;;;;;63.47;8.90;;;;;;;-144.73;100.00;54758.69;4982148;28;20027;-80
2023/12/11 04:52:55;;;;;;;61.85;8.20;;;;;;;-144.73;100.00;54742.28;4986395;28;20150;-78
2023/12/11 04:55:20;;;;;;;85.30;9.50;;;;;;;-144.73;100.00;54762.81;4982262;28;20053;-75
2023/12/11 04:57:46;;;;;;;83.18;9.82;;;;;;;-144.73;100.00;54732.00;4986243;28;20106;-78
2023/12/11 05:00:15;;;;;;;63.00;9.57;;;;;;;-144.73;100.00;54686.84;4979202;28;20050;-77
2023/12/11 05:02:42;;;;;;;78.32;10.40;;;;;;;-144.73;100.00;54760.75;4979380;28;20041;-78
2023/12/11 05:05:08;;;;;;;93.18;13.45;;;;;;;-144.73;100.00;54764.84;4984090;28;20022;-77
2023/12/11 05:07:33;;;;;;;84.65;12.07;;;;;;;-144.73;100.00;54727.91;4980383;28;20078;-77
2023/12/11 05:09:59;;;;;;;85.38;10.50;;;;;;;-144.73;100.00;54727.91;4985822;28;20097;-78
2023/12/11 05:12:24;;;;;;;95.22;13.32;;;;;;;-144.73;100.00;54785.38;4987951;28;20069;-76
2023/12/11 05:14:49;;;;;;;91.75;13.50;;;;;;;-144.73;100.00;54738.16;4979984;28;20502;-76
2023/12/11 05:17:15;;;;;;;71.68;12.10;;;;;;;-144.73;100.00;54736.13;4984960;28;20030;-75
2023/12/11 05:19:40;;;;;;;72.32;12.80;;;;;;;-144.73;100.00;54777.16;4985015;28;20034;-75
2023/12/11 05:22:06;;;;;;;97.70;12.65;;;;;;;-144.73;100.00;54748.44;4976013;28;20035;-76
2023/12/11 05:24:33;;;;;;;95.88;13.98;;;;;;;-144.73;100.00;54764.84;4977783;28;20041;-76
2023/12/11 05:26:59;;;;;;;92.38;12.15;;;;;;;-144.73;100.00;54764.84;4982325;28;20034;-75
2023/12/11 05:29:24;;;;;;;93.78;15.32;;;;;;;-144.73;100.00;54729.97;4975796;28;20030;-75
2023/12/11 05:31:50;;;;;;;91.90;13.50;;;;;;;-144.73;100.00;54736.13;4979422;28;20042;-75
2023/12/11 05:34:15;;;;;;;94.00;14.60;;;;;;;-144.73;100.00;54746.38;4980914;28;20023;-76
2023/12/11 05:36:41;;;;;;;87.85;12.18;;;;;;;-144.73;100.00;54756.66;4973303;28;20163;-75
2023/12/11 05:39:09;;;;;;;96.00;12.82;;;;;;;-144.73;100.00;54781.28;4973754;28;20022;-76
2023/12/11 05:41:34;;;;;;;95.07;13.50;;;;;;;-144.73;100.00;54754.59;4973549;28;20035;-76
2023/12/11 05:44:00;;;;;;;108.95;15.07;;;;;;;-144.73;100.00;54760.75;4988118;28;20018;-76
2023/12/11 05:46:25;;;;;;;94.28;13.88;;;;;;;-144.73;100.00;54748.44;4980469;28;20026;-76
2023/12/11 05:48:51;;;;;;;94.60;14.27;;;;;;;-144.73;100.00;54766.91;4978495;28;20429;-76
2023/12/11 05:51:16;;;;;;;102.65;12.93;;;;;;;-144.73;100.00;54732.00;4976775;28;20486;-76
2023/12/11 05:53:42;;;;;;;102.93;13.75;;;;;;;-144.73;100.00;54783.31;4981208;28;20074;-76
2023/12/11 05:56:07;;;;;;;80.55;12.75;;;;;;;-144.73;100.00;54740.22;4980675;28;20022;-77
2023/12/11 05:58:33;;;;;;;114.03;14.35;;;;;;;-144.73;100.00;54738.16;4984910;28;20081;-77
2023/12/11 06:00:58;;;;;;;92.50;12.98;;;;;;;-144.73;100.00;54703.28;4981786;28;20113;-77
2023/12/11 06:03:24;;;;;;;83.45;10.90;;;;;;;-144.73;100.00;54744.31;4983047;28;20046;-77
2023/12/11 06:05:55;;;;;;;105.75;13.48;;;;;;;-144.73;100.00;54764.84;4973869;28;20555;-77
2023/12/11 06:08:20;;;;;;;110.20;13.93;;;;;;;-144.73;100.00;54744.31;4980636;28;20043;-76
2023/12/11 06:10:45;;;;;;;109.00;12.60;;;;;;;-144.73;100.00;54711.47;4979458;28;20193;-75
2023/12/11 06:13:11;;;;;;;81.50;13.05;;;;;;;-144.73;100.00;54715.59;4979736;28;20034;-75
2023/12/11 06:15:36;;;;;;;96.63;14.15;;;;;;;-144.73;100.00;54752.53;4979077;28;20033;-75
2023/12/11 06:18:02;;;;;;;85.15;12.50;;;;;;;-144.73;100.00;54723.81;4984717;28;20046;-75
2023/12/11 06:20:27;;;;;;;130.05;16.77;;;;;;;-144.73;100.00;54801.81;4988616;28;20124;-75
2023/12/11 06:22:53;;;;;;;116.35;15.63;;;;;;;-144.73;100.00;54766.91;4982024;28;20041;-75
2023/12/11 06:25:18;;;;;;;96.95;13.80;;;;;;;-144.73;100.00;54723.81;4983279;28;20117;-75
2023/12/11 06:27:44;;;;;;;83.95;12.25;;;;;;;-144.73;100.00;54748.44;4977443;28;20038;-74
2023/12/11 06:30:10;;;;;;;99.53;13.55;;;;;;;-144.73;100.00;54727.91;4985363;28;20018;-76
2023/12/11 06:32:35;;;;;;;94.57;12.68;;;;;;;-144.73;100.00;54752.53;4979528;28;20085;-76
2023/12/11 06:35:01;;;;;;;112.47;14.85;;;;;;;-144.73;100.00;54744.31;4980719;28;20022;-76
2023/12/11 06:37:26;;;;;;;104.40;14.10;;;;;;;-144.73;100.00;54740.22;4974102;28;20047;-77
2023/12/11 06:39:51;;;;;;;108.70;15.02;;;;;;;-144.73;100.00;54740.22;4976507;28;20036;-77
2023/12/11 06:42:17;;;;;;;107.03;15.55;;;;;;;-144.73;100.00;54756.66;4970040;28;20057;-76
2023/12/11 06:44:42;;;;;;;106.57;14.07;;;;;;;-144.73;100.00;54699.16;4974848;28;20042;-76
2023/12/11 06:47:09;;;;;;;124.10;16.33;;;;;;;-144.73;100.00;54725.84;4995954;28;20055;-75
2023/12/11 06:49:34;;;;;;;111.40;14.63;;;;;;;-144.73;100.00;54719.69;4973139;28;20138;-75
2023/12/11 06:52:00;;;;;;;98.07;14.25;;;;;;;-144.73;100.00;54748.44;4973420;28;20098;-75
2023/12/11 06:54:25;;;;;;;109.03;16.65;;;;;;;-144.73;100.00;54711.47;4976202;28;20404;-77
2023/12/11 06:56:50;;;;;;;86.13;12.32;;;;;;;-144.73;100.00;54707.38;4984134;28;20034;-76
2023/12/11 06:59:19;;;;;;;96.70;12.18;;;;;;;-144.73;100.00;54754.59;4980128;28;20034;-76
2023/12/11 07:01:44;;;;;;;97.07;15.25;;;;;;;-144.73;100.00;54729.97;4978445;28;20488;-78
2023/12/11 07:04:12;;;;;;;135.32;18.58;;;;;;;-144.73;100.00;54732.00;4984947;28;20026;-80
2023/12/11 07:06:38;;;;;;;101.03;15.40;;;;;;;-144.73;100.00;54740.22;4990478;28;20022;-81
2023/12/11 07:09:03;;;;;;;140.43;17.70;;;;;;;-144.73;100.00;54748.44;4987263;28;20026;-77
2023/12/11 07:11:28;;;;;;;109.60;18.17;;;;;;;-144.73;100.00;54748.44;4980514;28;20051;-77
2023/12/11 07:13:54;;;;;;;118.45;18.65;;;;;;;-144.73;100.00;54758.69;4979396;28;20188;-77
2023/12/11 07:16:19;;;;;;;114.30;18.10;;;;;;;-144.73;100.00;54748.44;4981581;28;20022;-77
2023/12/11 07:18:45;;;;;;;132.35;20.15;;;;;;;-144.73;100.00;54727.91;4982519;28;20137;-77
2023/12/11 07:21:11;;;;;;;115.22;17.25;;;;;;;-144.73;100.00;54779.22;4981990;28;20030;-77
2023/12/11 07:23:37;;;;;;;126.03;17.55;;;;;;;-144.73;100.00;54727.91;4981888;28;20042;-77
2023/12/11 07:26:10;;;;;;;111.95;17.73;;;;;;;-144.73;100.00;54723.81;4983133;28;20032;-71
2023/12/11 07:28:36;;;;;;;118.82;15.90;;;;;;;-144.73;100.00;54723.81;4981411;28;20031;-72
2023/12/11 07:31:02;;;;;;;97.32;14.82;;;;;;;-144.73;100.00;54695.06;4984965;28;20101;-72
2023/12/11 07:33:28;;;;;;;125.13;17.00;;;;;;;-144.73;100.00;54746.38;4979902;28;20062;-72
2023/12/11 07:35:53;;;;;;;86.88;15.00;;;;;;;-144.73;100.00;54748.44;4986396;28;20054;-72
2023/12/11 07:38:18;;;;;;;110.70;14.73;;;;;;;-144.73;100.00;54750.50;4980719;28;20133;-71
2023/12/11 07:40:44;;;;;;;103.60;15.00;;;;;;;-144.73;100.00;54764.84;4982566;28;20030;-71
2023/12/11 07:43:16;;;;;;;85.75;12.90;;;;;;;-144.73;100.00;54760.75;4979813;28;20030;-72
2023/12/11 07:45:41;;;;;;;91.45;15.23;;;;;;;-144.73;100.00;54768.97;4985896;28;20099;-70
2023/12/11 07:48:07;;;;;;;78.38;13.80;;;;;;;-144.73;100.00;54723.81;4977460;28;20054;-71
2023/12/11 07:50:32;;;;;;;85.55;14.07;;;;;;;-144.73;100.00;54740.22;4983383;28;20027;-71
2023/12/11 07:52:58;;;;;;;78.50;11.80;;;;;;;-144.73;100.00;54781.28;4981713;28;20042;-70
2023/12/11 07:55:23;;;;;;;72.28;11.63;;;;;;;-144.73;100.00;54752.53;4982374;28;20031;-72
2023/12/11 07:57:48;;;;;;;76.38;12.52;;;;;;;-144.73;100.00;54756.66;4979258;28;20043;-72
2023/12/11 08:00:14;;;;;;;83.82;12.57;;;;;;;-144.73;100.00;54752.53;4983786;28;20030;-73
2023/12/11 08:02:41;;;;;;;75.10;11.32;;;;;;;-144.73;100.00;54707.38;4981116;28;20038;-71
2023/12/11 08:05:06;;;;;;;72.43;11.43;;;;;;;-144.73;100.00;54727.91;4991120;28;20057;-71
2023/12/11 08:07:32;;;;;;;83.45;11.45;;;;;;;-144.73;100.00;54752.53;4974861;28;20069;-70
2023/12/11 08:09:57;;;;;;;68.07;10.95;;;;;;;-144.73;100.00;54732.00;4983437;28;20026;-70
2023/12/11 08:12:22;;;;;;;65.47;11.75;;;;;;;-144.73;100.00;54740.22;4979796;28;20069;-70
2023/12/11 08:14:48;;;;;;;85.50;13.43;;;;;;;-144.73;100.00;54715.59;4985742;28;20034;-70
2023/12/11 08:17:13;;;;;;;74.30;11.70;;;;;;;-144.73;100.00;54756.66;4976818;28;20088;-69
2023/12/11 08:19:38;;;;;;;71.82;11.00;;;;;;;-144.73;100.00;54715.59;4988387;28;20401;-70
2023/12/11 08:22:04;;;;;;;63.08;11.30;;;;;;;-144.73;100.00;54748.44;4976776;28;20045;-70
2023/12/11 08:24:29;;;;;;;68.68;10.98;;;;;;;-144.73;100.00;54740.22;4977536;28;20035;-70
2023/12/11 08:26:55;;;;;;;55.65;11.13;;;;;;;-144.73;100.00;54707.38;4977238;28;20034;-70
2023/12/11 08:29:23;;;;;;;72.88;11.80;;;;;;;-144.73;100.00;54760.75;4973791;28;20041;-70
2023/12/11 08:31:49;;;;;;;66.57;11.15;;;;;;;-144.73;100.00;54732.00;4980430;28;20026;-70
2023/12/11 08:34:15;;;;;;;74.82;11.93;;;;;;;-144.73;100.00;54746.38;4971596;28;20095;-71
2023/12/11 08:36:40;;;;;;;62.97;11.77;;;;;;;-144.73;100.00;54773.06;4978751;28;20045;-70
2023/12/11 08:39:06;;;;;;;65.60;12.73;;;;;;;-144.73;100.00;54756.66;4975356;28;20033;-70
2023/12/11 08:41:33;;;;;;;72.65;12.80;;;;;;;-144.73;100.00;54773.06;4974635;28;20034;-70
2023/12/11 08:43:58;;;;;;;57.25;12.27;;;;;;;-144.73;100.00;54768.97;4976637;28;20030;-70
2023/12/11 08:46:24;;;;;;;69.70;11.70;;;;;;;-144.73;100.00;54764.84;4984047;28;20034;-70
2023/12/11 08:48:49;;;;;;;92.80;12.85;;;;;;;-144.73;100.00;54742.28;4978289;28;20074;-70
2023/12/11 08:51:18;;;;;;;77.93;12.52;;;;;;;-144.73;100.00;54740.22;4985701;28;20026;-71
2023/12/11 08:53:44;;;;;;;60.95;13.02;;;;;;;-144.73;100.00;54723.81;4974218;28;20472;-71
2023/12/11 08:56:09;;;;;;;69.70;12.65;;;;;;;-144.73;100.00;54760.75;4977358;28;20102;-71
2023/12/11 08:58:36;;;;;;;81.97;13.50;;;;;;;-144.73;100.00;54764.84;4982193;28;20100;-71
2023/12/11 09:01:01;;;;;;;86.30;13.90;;;;;;;-144.73;100.00;54727.91;4981361;28;20030;-71
2023/12/11 09:03:26;;;;;;;75.38;12.38;;;;;;;-144.73;100.00;54727.91;4977355;28;20038;-69
2023/12/11 09:05:52;;;;;;;63.13;14.55;;;;;;;-144.73;100.00;54756.66;4979888;28;20038;-69
2023/12/11 09:08:17;;;;;;;95.05;14.70;;;;;;;-144.73;100.00;54752.53;4975063;28;20126;-70
2023/12/11 09:10:43;;;;;;;82.35;14.00;;;;;;;-144.73;100.00;54740.22;4974261;28;20041;-69
2023/12/11 09:13:08;;;;;;;81.07;13.15;;;;;;;-144.73;100.00;54773.06;4985270;28;20034;-70
2023/12/11 09:15:33;;;;;;;73.35;11.93;;;;;;;-144.73;100.00;54740.22;4978123;28;20034;-70
2023/12/11 09:17:59;;;;;;;78.57;15.05;;;;;;;-144.73;100.00;54723.81;4971323;28;20038;-70
2023/12/11 09:20:24;;;;;;;78.03;12.45;;;;;;;-144.73;100.00;54715.59;4972977;28;20054;-70
2023/12/11 09:22:49;;;;;;;79.20;11.93;;;;;;;-144.73;100.00;54736.13;4976235;28;20045;-70
2023/12/11 09:25:15;;;;;;;81.13;13.75;;;;;;;-144.73;100.00;54760.75;4975240;28;20078;-71
2023/12/11 09:27:40;;;;;;;74.55;12.77;;;;;;;-144.73;100.00;54768.97;4982713;28;20034;-72
2023/12/11 09:30:11;;;;;;;69.70;11.20;;;;;;;-144.73;100.00;54744.31;4982478;28;20030;-73
2023/12/11 09:32:37;;;;;;;57.77;10.67;;;;;;;-144.73;100.00;54744.31;4981281;28;20039;-73
2023/12/11 09:35:03;;;;;;;55.67;10.18;;;;;;;-144.73;100.00;54736.13;4978531;28;20479;-74
2023/12/11 09:37:28;;;;;;;58.60;10.80;;;;;;;-144.73;100.00;54744.31;4982519;28;20089;-73
2023/12/11 09:39:53;;;;;;;61.30;9.75;;;;;;;-144.73;100.00;54748.44;4975559;28;20035;-72
2023/12/11 09:42:19;;;;;;;46.70;8.90;;;;;;;-144.73;100.00;54801.81;4979569;28;20418;-73
2023/12/11 09:44:48;;;;;;;39.47;6.75;;;;;;;-144.73;100.00;54764.84;4981596;28;20030;-73
2023/12/11 09:47:19;;;;;;;32.83;6.00;;;;;;;-144.73;100.00;54781.28;4987535;28;20046;-72
2023/12/11 09:49:46;;;;;;;35.67;6.25;;;;;;;-144.73;100.00;54789.50;4977941;28;20022;-71
2023/12/11 09:52:13;;;;;;;32.10;6.05;;;;;;;-144.73;100.00;54740.22;4973580;28;20110;-71
2023/12/11 09:54:38;;;;;;;47.45;8.23;;;;;;;-144.73;100.00;54793.59;4973312;28;20134;-71
2023/12/11 09:57:06;;;;;;;42.85;9.05;;;;;;;-144.73;100.00;54727.91;4982684;28;20066;-71
2023/12/11 09:59:32;;;;;;;56.92;9.80;;;;;;;-144.73;100.00;54773.06;4978012;28;20397;-71
2023/12/11 10:01:57;;;;;;;58.92;12.05;;;;;;;-144.73;100.00;54748.44;4970823;28;20043;-70
2023/12/11 10:04:22;;;;;;;56.72;9.75;;;;;;;-144.73;100.00;54727.91;4976466;28;20125;-71
2023/12/11 10:06:52;;;;;;;69.80;11.98;;;;;;;-144.73;100.00;54768.97;4983194;28;20034;-71
2023/12/11 10:09:31;;;;;;;77.10;11.48;;;;;;;-144.73;100.00;54756.66;4971651;28;20169;-71
2023/12/11 10:11:58;;;;;;;67.85;10.60;;;;;;;-144.73;100.00;54746.38;4976276;28;20038;-71
2023/12/11 10:14:24;;;;;;;75.47;11.55;;;;;;;-144.73;100.00;54719.69;4972067;28;20035;-70
2023/12/11 10:16:49;;;;;;;59.78;10.55;;;;;;;-144.73;100.00;54740.22;4979774;28;20117;-70
2023/12/11 10:19:14;;;;;;;48.78;10.68;;;;;;;-144.73;100.00;54732.00;4985697;28;20116;-70
2023/12/11 10:21:41;;;;;;;61.05;10.70;;;;;;;-144.73;100.00;54715.59;4972315;28;20034;-70
2023/12/11 10:24:16;;;;;;;71.90;11.35;;;;;;;-144.73;100.00;54777.16;4982663;28;20026;-70
2023/12/11 10:26:47;;;;;;;50.85;10.20;;;;;;;-144.73;100.00;54748.44;4969889;28;20457;-70
2023/12/11 10:29:24;;;;;;;62.80;12.20;;;;;;;-144.73;100.00;54760.75;4980182;28;20035;-69
2023/12/11 10:31:51;;;;;;;66.28;11.82;;;;;;;-144.73;100.00;54719.69;4985151;28;20038;-71
2023/12/11 10:34:16;;;;;;;61.90;10.63;;;;;;;-144.73;100.00;54756.66;4985306;28;20041;-71
2023/12/11 10:36:49;;;;;;;58.22;9.38;;;;;;;-144.73;100.00;54732.00;4984855;28;20031;-71
2023/12/11 10:39:16;;;;;;;48.55;8.90;;;;;;;-144.73;100.00;54703.28;4977611;28;20022;-70
2023/12/11 10:41:44;;;;;;;49.97;9.73;;;;;;;-144.73;100.00;54723.81;4975829;28;20032;-71
2023/12/11 10:44:21;;;;;;;54.42;8.73;;;;;;;-144.73;100.00;54744.31;4976327;28;20026;-71
2023/12/11 10:46:49;;;;;;;43.15;6.97;;;;;;;-144.73;100.00;54775.13;4981443;28;20035;-71
2023/12/11 10:49:15;;;;;;;53.58;7.85;;;;;;;-144.73;100.00;54711.47;4991044;28;20030;-70
2023/12/11 10:51:40;;;;;;;58.42;8.30;;;;;;;-144.73;100.00;54723.81;4982382;28;20022;-71